Latest Weather Observations for Merriwa

IDN60801

Issued at 5:35 pm EST Monday 22 September 2014 (issued every 30 minutes, with the page automatically refreshed every 10 minutes)

About weather observations | Map of weather stations | Latest weather observations for NSW | Other Formats
Station Details ID: 061287 Name: MERRIWA (ROSCOMMON) Lat: -32.19 Lon: 150.17 Height: 375.0 m
Data from the previous 72 hours. | See also: Recent months at Merriwa
Date/Time
EST
Temp
°C
App
Temp
°C
Dew
Point
Rel
Hum
%
Delta-T
°C
Wind Press
QNH
hPa
Press
MSL
hPa
Rain
since 9 am
mm
Dir
 
Spd
km/h
Gust
km/h
Spd
kts
Gust
kts
22/05:30pm 17.0 13.8 5.0 45 5.8 E 11 15 6 8 1027.8 1027.6 0.0
22/05:00pm 18.6 15.3 4.4 39 6.9 E 11 19 6 10 1027.6 1027.3 0.0
22/04:30pm 19.2 15.1 4.6 38 7.2 E 15 20 8 11 1027.5 1027.2 0.0
22/04:00pm 19.8 16.0 3.9 35 7.7 E 13 20 7 11 1027.3 1027.0 0.0
22/03:30pm 20.0 15.8 3.7 34 7.9 E 15 26 8 14 1027.3 1027.0 0.0
22/03:00pm 20.3 15.9 4.8 36 7.6 E 17 22 9 12 1027.5 1027.2 0.0
22/02:30pm 19.6 16.4 4.9 38 7.3 E 11 20 6 11 1027.7 1027.5 0.0
22/02:00pm 20.2 16.9 6.5 41 7.0 E 13 20 7 11 1028.1 1027.9 0.0
22/01:30pm 19.4 16.3 5.5 40 7.0 ESE 11 17 6 9 1028.3 1028.1 0.0
22/01:00pm 19.4 15.6 5.8 41 6.8 E 15 26 8 14 1028.9 1028.6 0.0
22/12:30pm 18.7 15.7 5.9 43 6.4 E 11 20 6 11 1029.5 1029.2 0.0
22/12:00pm 18.3 14.9 5.8 44 6.2 E 13 22 7 12 1030.1 1029.9 0.0
22/11:30am 17.7 14.7 5.9 46 5.9 E 11 20 6 11 1030.5 1030.3 0.0
22/11:00am 17.5 14.0 7.0 50 5.3 ESE 15 26 8 14 1031.0 1030.8 0.0
22/10:30am 16.8 13.6 6.9 52 5.0 E 13 20 7 11 1031.5 1031.2 0.0
22/10:00am 17.2 13.6 8.4 56 4.6 E 17 26 9 14 1031.6 1031.3 0.0
22/09:31am 14.5 11.1 9.3 71 2.7 E 17 24 9 13 1032.0 1031.7 0.0
22/09:30am 14.4 11.0 9.2 71 2.7 E 17 24 9 13 1032.0 1031.7 0.0
22/09:00am 13.4 11.6 10.9 85 1.3 ESE 11 15 6 8 1032.2 1031.9 0.0
22/08:30am 12.6 11.4 11.7 94 0.5 E 9 13 5 7 1032.1 1031.8 0.0
22/08:00am 11.1 9.7 10.8 98 0.2 ENE 9 13 5 7 1032.0 1031.7 0.0
22/07:56am 11.1 9.7 10.9 99 0.1 ENE 9 11 5 6 1031.9 1031.6 0.0
22/07:30am 9.6 8.2 9.5 99 0.1 ENE 7 7 4 4 1031.7 1031.4 0.0
22/07:00am 6.9 5.0 6.8 99 0.0 SE 6 7 3 4 1031.4 1031.1 0.0
22/06:30am 4.9 2.6 4.8 99 0.0 SE 6 7 3 4 1031.0 1030.8 0.0
22/06:24am 4.2 1.6 4.1 99 0.0 SE 7 7 4 4 1030.8 1030.6 0.0
22/06:00am 4.4 3.1 4.3 99 0.0 SE 0 4 0 2 1030.3 1030.1 0.0
22/05:45am 4.1 1.6 4.0 99 0.0 SE 6 6 3 3 1030.2 1030.0 0.0
22/05:30am 3.3 1.8 3.2 99 0.0 CALM 0 0 0 0 1030.1 1029.9 0.0
22/05:00am 3.9 2.5 3.8 99 0.0 CALM 0 0 0 0 1029.7 1029.4 0.0
22/04:30am 4.0 1.5 3.9 99 0.0 SE 6 6 3 3 1029.4 1029.1 0.0
22/04:00am 5.6 3.3 5.5 99 0.0 SE 7 9 4 5 1029.1 1028.8 0.0
22/03:30am 5.0 2.7 4.9 99 0.0 SE 6 6 3 3 1028.9 1028.6 0.0
22/03:00am 5.8 4.8 5.5 98 0.1 CALM 0 0 0 0 1028.8 1028.5 0.0
22/02:30am 6.0 2.9 5.7 98 0.1 ESE 11 13 6 7 1029.0 1028.7 0.0
22/02:00am 7.0 4.5 6.7 98 0.1 ENE 9 11 5 6 1029.3 1029.0 0.0
22/01:30am 6.5 4.5 6.2 98 0.1 ENE 6 7 3 4 1029.6 1029.3 0.0
22/01:00am 7.0 6.2 6.7 98 0.1 CALM 0 0 0 0 1029.7 1029.4 0.0
22/12:30am 8.6 8.1 7.7 94 0.4 CALM 0 4 0 2 1029.8 1029.5 0.0
22/12:00am 8.3 6.2 6.6 89 0.8 NE 7 11 4 6 1029.9 1029.6 0.0
 
Date/Time
EST
Temp
°C
App
Temp
°C
Dew
Point
Rel
Hum
%
Delta-T
°C
Wind Press
QNH
hPa
Press
MSL
hPa
Rain
since 9 am
mm
Dir
 
Spd
km/h
Gust
km/h
Spd
kts
Gust
kts
21/11:30pm 10.0 7.9 8.3 89 0.8 ESE 9 11 5 6 1030.0 1029.8 0.0
21/11:00pm 10.8 7.4 9.1 89 0.9 SE 17 20 9 11 1029.8 1029.5 0.0
21/10:30pm 10.4 8.0 8.8 90 0.8 SSE 11 13 6 7 1030.0 1029.8 0.0
21/10:00pm 10.7 8.7 8.5 86 1.1 SE 9 13 5 7 1029.7 1029.4 0.0
21/09:30pm 11.7 8.9 8.7 82 1.5 SSE 13 17 7 9 1029.4 1029.1 0.0
21/09:00pm 12.5 9.7 8.6 77 2.0 ESE 13 19 7 10 1029.2 1028.9 0.0
21/08:30pm 12.6 10.5 8.3 75 2.2 E 9 15 5 8 1029.0 1028.7 0.0
21/08:00pm 12.4 9.9 8.3 76 2.1 E 11 19 6 10 1028.8 1028.5 0.0
21/07:30pm 11.4 9.3 6.5 72 2.4 ENE 7 11 4 6 1028.3 1028.1 0.0
21/07:00pm 12.0 8.8 6.7 70 2.6 E 13 17 7 9 1027.7 1027.5 0.0
21/06:30pm 13.5 10.7 6.8 64 3.3 E 11 19 6 10 1027.3 1027.0 0.0
21/06:00pm 14.9 12.0 6.7 58 4.0 E 11 17 6 9 1026.8 1026.5 0.0
21/05:30pm 16.2 12.5 6.3 52 4.9 E 15 24 8 13 1026.6 1026.3 0.0
21/05:00pm 17.4 13.2 5.7 46 5.8 E 17 24 9 13 1026.4 1026.1 0.0
21/04:30pm 18.6 14.3 5.1 41 6.7 E 17 26 9 14 1026.3 1026.0 0.0
21/04:00pm 18.9 14.1 5.7 42 6.6 E 20 30 11 16 1025.9 1025.6 0.0
21/03:30pm 18.7 14.5 5.5 42 6.6 ESE 17 32 9 17 1025.8 1025.5 0.0
21/03:00pm 19.0 13.5 4.0 37 7.2 SE 22 30 12 16 1025.8 1025.5 0.0
21/02:30pm 18.4 13.0 6.3 45 6.1 ESE 24 28 13 15 1026.4 1026.1 0.0
21/02:00pm 18.5 13.8 5.0 41 6.6 SE 19 24 10 13 1026.9 1026.6 0.0
21/01:30pm 18.9 14.7 5.7 42 6.6 SE 17 26 9 14 1027.2 1026.9 0.0
21/01:00pm 19.0 15.2 7.4 47 6.0 SE 17 26 9 14 1027.8 1027.6 0.0
21/12:30pm 18.5 15.5 7.9 50 5.5 E 13 19 7 10 1028.3 1028.1 0.0
21/12:00pm 17.7 13.4 7.2 50 5.3 ESE 19 30 10 16 1028.7 1028.4 0.0
21/11:30am 16.9 13.9 7.5 54 4.8 SE 13 17 7 9 1029.2 1028.9 0.0
21/11:00am 17.0 12.8 7.4 53 4.9 E 19 26 10 14 1029.4 1029.1 0.0
21/10:30am 17.1 13.9 10.0 63 3.8 E 17 24 9 13 1029.7 1029.4 0.0
21/10:00am 15.4 11.1 7.2 58 4.1 E 19 28 10 15 1029.7 1029.4 0.0
21/09:30am 14.6 11.4 8.5 67 3.1 E 15 17 8 9 1029.7 1029.4 0.0
21/09:00am 13.6 10.0 8.2 70 2.7 E 17 24 9 13 1029.8 1029.5 0.0
21/08:30am 13.1 10.4 8.8 75 2.2 E 13 20 7 11 1029.7 1029.4 0.0
21/08:00am 11.9 9.6 8.9 82 1.5 ENE 11 15 6 8 1029.4 1029.1 0.0
21/07:30am 10.5 8.8 9.7 95 0.4 E 9 13 5 7 1029.1 1028.8 0.0
21/07:00am 7.4 6.8 7.3 99 0.0 CALM 0 0 0 0 1028.9 1028.6 0.0
21/06:30am 5.2 2.8 5.1 99 0.0 E 7 9 4 5 1028.6 1028.3 0.0
21/06:00am 4.9 2.0 4.8 99 0.0 E 9 9 5 5 1028.2 1028.0 0.0
21/05:30am 5.0 2.7 4.9 99 0.0 ENE 6 7 3 4 1027.8 1027.6 0.0
21/05:00am 5.5 3.1 5.4 99 0.0 ENE 7 7 4 4 1027.4 1027.1 0.0
21/04:30am 5.8 3.5 5.7 99 0.0 E 7 9 4 5 1027.2 1026.9 0.0
21/04:00am 4.9 3.7 4.6 98 0.1 CALM 0 0 0 0 1026.9 1026.6 0.0
21/03:30am 5.9 3.8 5.6 98 0.1 E 6 7 3 4 1027.0 1026.7 0.0
21/03:00am 6.0 3.9 5.7 98 0.1 E 6 9 3 5 1027.3 1027.0 0.0
21/02:30am 6.1 3.3 5.2 94 0.4 E 9 11 5 6 1027.3 1027.0 0.0
21/02:00am 6.5 4.3 6.1 97 0.2 E 7 11 4 6 1027.6 1027.3 0.0
21/01:30am 7.1 3.8 6.4 95 0.3 E 13 15 7 8 1027.6 1027.3 0.0
21/01:00am 6.8 4.0 5.3 90 0.7 ESE 9 15 5 8 1027.9 1027.7 0.0
21/12:30am 7.6 4.9 5.7 88 0.9 ESE 9 11 5 6 1027.6 1027.3 0.0
21/12:00am 8.7 5.4 6.2 84 1.2 SE 13 17 7 9 1027.6 1027.3 0.0
 
Date/Time
EST
Temp
°C
App
Temp
°C
Dew
Point
Rel
Hum
%
Delta-T
°C
Wind Press
QNH
hPa
Press
MSL
hPa
Rain
since 9 am
mm
Dir
 
Spd
km/h
Gust
km/h
Spd
kts
Gust
kts
20/11:30pm 8.5 5.1 6.0 84 1.2 ESE 13 17 7 9 1027.3 1027.0 0.0
20/11:00pm 9.4 5.8 6.7 83 1.3 ESE 15 20 8 11 1027.2 1026.9 0.0
20/10:30pm 9.7 6.2 7.0 83 1.3 ESE 15 20 8 11 1027.3 1027.0 0.0
20/10:00pm 10.4 6.1 6.9 79 1.7 ESE 19 24 10 13 1026.9 1026.6 0.0
20/09:30pm 11.0 5.8 7.1 77 1.9 ESE 24 33 13 18 1026.6 1026.3 0.0
20/09:00pm 11.4 6.6 7.5 77 1.9 ESE 22 33 12 18 1026.5 1026.2 0.0
20/08:30pm 11.9 7.5 7.4 74 2.2 ESE 20 30 11 16 1026.1 1025.8 0.0
20/08:00pm 12.6 7.8 7.3 70 2.6 E 22 33 12 18 1025.5 1025.3 0.0
20/07:30pm 9.9 6.1 3.9 66 2.7 E 13 19 7 10 1025.0 1024.7 0.0
20/07:00pm 10.2 7.3 2.8 60 3.2 ENE 7 9 4 5 1024.5 1024.2 0.0
20/06:30pm 12.7 9.5 2.8 51 4.4 ENE 9 13 5 7 1023.9 1023.6 0.0
20/06:00pm 14.4 11.1 2.3 44 5.4 E 9 13 5 7 1023.4 1023.1 0.0
20/05:30pm 16.7 12.6 2.0 37 6.7 E 13 17 7 9 1022.8 1022.5 0.0
20/05:00pm 18.3 13.7 1.3 32 7.7 ENE 15 20 8 11 1022.3 1022.0 0.0
20/04:30pm 19.3 15.3 0.4 28 8.5 E 11 17 6 9 1022.0 1021.7 0.0
20/04:00pm 19.5 15.2 -1.6 24 9.1 E 11 15 6 8 1021.8 1021.5 0.0
20/03:30pm 20.0 15.5 -0.6 25 9.2 SE 13 17 7 9 1021.6 1021.3 0.0
20/03:00pm 20.0 15.5 -0.1 26 9.0 E 13 24 7 13 1021.6 1021.3 0.0
20/02:30pm 20.0 15.5 -3.6 20 9.9 SSE 11 20 6 11 1021.8 1021.5 0.0
20/02:00pm 20.0 15.8 -4.3 19 10.0 ENE 9 13 5 7 1021.9 1021.6 0.0
20/01:30pm 20.0 15.8 -4.3 19 10.0 S 9 19 5 10 1022.1 1021.8 0.0
20/01:00pm 19.9 15.3 -12.6 10 11.3 ESE 7 11 4 6 1022.3 1022.0 0.0
20/12:30pm 18.9 14.5 -2.7 23 9.1 SE 11 20 6 11 1022.6 1022.3 0.0
20/12:00pm 18.5 14.3 -3.6 22 9.1 NE 9 13 5 7 1023.0 1022.6 0.0
20/11:30am 18.3 15.0 2.6 35 7.4 NNE 9 15 5 8 1023.4 1023.1 0.0
20/11:00am 17.0 14.2 3.0 39 6.5 E 7 13 4 7 1023.7 1023.4 0.0
20/10:30am 16.1 12.8 2.5 40 6.2 S 9 13 5 7 1024.0 1023.7 0.0
20/10:00am 15.0 11.8 3.2 45 5.4 SE 9 15 5 8 1024.3 1024.0 0.0
20/09:30am 14.0 11.3 2.9 47 5.1 SSE 6 7 3 4 1024.5 1024.2 0.0
20/09:00am 12.5 9.8 3.7 55 4.0 S 7 11 4 6 1024.5 1024.2 0.0
20/08:30am 10.6 8.5 3.9 63 3.0 WSW 4 9 2 5 1024.5 1024.2 0.0
20/08:00am 8.0 6.6 3.3 72 2.0 CALM 0 6 0 3 1024.3 1024.0 0.0
20/07:30am 5.5 2.7 3.2 85 1.0 SSW 7 9 4 5 1024.0 1023.7 0.0
20/07:00am 2.0 0.2 1.1 94 0.3 CALM 0 0 0 0 1023.7 1023.4 0.0
20/06:30am 0.2 -2.9 -0.1 98 0.1 WSW 6 7 3 4 1023.2 1022.9 0.0
20/06:00am -0.7 -4.2 -1.4 95 0.2 W 7 7 4 4 1022.7 1022.4 0.0
20/05:30am -0.1 -2.2 -0.8 95 0.2 CALM 0 0 0 0 1022.1 1021.8 0.0
20/05:00am 0.0 -3.5 -1.0 93 0.4 W 7 9 4 5 1021.8 1021.5 0.0
20/04:30am 0.3 -3.0 -1.3 89 0.6 WNW 6 9 3 5 1021.4 1021.1 0.0
20/04:00am 0.9 -1.3 -1.3 85 0.8 CALM 0 0 0 0 1021.2 1020.9 0.0
20/03:30am 3.9 0.7 0.6 79 1.3 WNW 7 11 4 6 1021.1 1020.8 0.0
20/03:00am 4.4 0.8 0.4 75 1.6 WNW 9 9 5 5 1021.2 1020.9 0.0
20/02:30am 4.0 0.3 -0.2 74 1.6 NW 9 11 5 6 1021.4 1021.1 0.0
20/02:00am 5.7 1.7 0.7 70 2.0 W 11 13 6 7 1021.4 1021.1 0.0
20/01:30am 5.9 2.0 1.1 71 1.9 WNW 11 13 6 7 1021.5 1021.2 0.0
20/01:00am 5.7 1.8 0.9 71 1.9 WNW 11 13 6 7 1021.6 1021.3 0.0
20/12:30am 7.1 2.9 1.4 67 2.4 WNW 13 15 7 8 1021.6 1021.3 0.0
20/12:00am 6.5 2.3 1.6 71 2.0 WNW 13 15 7 8 1021.7 1021.4 0.0
 
Date/Time
EST
Temp
°C
App
Temp
°C
Dew
Point
Rel
Hum
%
Delta-T
°C
Wind Press
QNH
hPa
Press
MSL
hPa
Rain
since 9 am
mm
Dir
 
Spd
km/h
Gust
km/h
Spd
kts
Gust
kts
19/11:30pm 7.1 3.3 1.8 69 2.2 WNW 11 15 6 8 1021.8 1021.5 0.0
19/11:00pm 7.8 4.1 2.1 67 2.4 WNW 11 13 6 7 1021.8 1021.5 0.0
19/10:30pm 7.6 3.8 1.7 66 2.5 NW 11 13 6 7 1021.9 1021.6 0.0
19/10:00pm 7.1 3.2 1.4 67 2.3 NW 11 13 6 7 1021.8 1021.5 0.0
19/09:30pm 7.3 4.2 1.4 66 2.4 NW 7 9 4 5 1021.7 1021.4 0.0
19/09:00pm 6.8 4.2 0.7 65 2.5 N 4 7 2 4 1021.7 1021.4 0.0
19/08:30pm 7.1 4.0 1.4 67 2.4 NNW 7 11 4 6 1021.6 1021.3 0.0
19/08:00pm 7.7 4.5 0.7 61 2.8 NNW 7 7 4 4 1021.4 1021.1 0.0
19/07:30pm 7.7 4.5 0.9 62 2.8 N 7 9 4 5 1021.1 1020.8 0.0
19/07:00pm 8.0 5.1 2.7 69 2.3 NNE 7 7 4 4 1020.7 1020.3 0.0
19/06:30pm 10.2 8.5 1.8 56 3.6 CALM 0 0 0 0 1020.4 1020.0 0.0
19/06:00pm 12.7 9.6 0.1 42 5.3 NNE 6 6 3 3 1020.1 1019.7 0.0

Other Formats:

Comma delimited format used in spreadsheet applications
http://www.bom.gov.au/fwo/IDN60801/IDN60801.95754.axf

JavaScript Object Notation format (JSON) in row-major order
http://www.bom.gov.au/fwo/IDN60801/IDN60801.95754.json